Latest Weather Observations for Fort Denison

IDN60801

Issued at 11:02 pm EST Sunday 21 July 2019 (issued every 10 minutes, with the page automatically refreshed every 10 minutes)

About weather observations | Map of weather stations | Latest weather observations for NSW | Other Formats
Station Details ID: 066022 Name: FORT DENISON Lat: -33.86 Lon: 151.23 Height: 5.0 m
Data from the previous 72 hours. | See also: Recent months for locations in New South Wales
Date/Time
EST
Temp
°C
App
Temp
°C
Dew
Point
°C
Rel
Hum
%
Delta-T
°C
Wind Press
QNH
hPa
Press
MSL
hPa
Rain since
9am
mm
Dir  Spd
km/h
Gust
km/h
Spd
kts
Gust
kts
21/11:00pm - - - - - CALM 0 4 0 2 - - -
21/10:30pm - - - - - NE 4 6 2 3 - - -
21/10:00pm - - - - - CALM 0 4 0 2 - - -
21/09:30pm - - - - - N 4 7 2 4 - - -
21/09:00pm - - - - - E 6 7 3 4 - - -
21/08:30pm - - - - - WSW 2 6 1 3 - - -
21/08:00pm - - - - - NW 6 6 3 3 - - -
21/07:30pm - - - - - WSW 4 6 2 3 - - -
21/07:00pm - - - - - CALM 0 2 0 1 - - -
21/06:30pm - - - - - NNW 11 19 6 10 - - -
21/06:00pm - - - - - NW 6 9 3 5 - - -
21/05:30pm - - - - - N 6 7 3 4 - - -
21/05:00pm - - - - - SSW 4 7 2 4 - - -
21/04:30pm - - - - - ENE 4 9 2 5 - - -
21/04:00pm - - - - - NE 9 11 5 6 - - -
21/03:30pm - - - - - E 15 17 8 9 - - -
21/03:00pm - - - - - E 15 19 8 10 - - -
21/02:30pm - - - - - E 17 19 9 10 - - -
21/02:00pm - - - - - E 13 15 7 8 - - -
21/01:30pm - - - - - E 9 11 5 6 - - -
21/01:00pm - - - - - ESE 9 13 5 7 - - -
21/12:30pm - - - - - ESE 9 11 5 6 - - -
21/12:00pm - - - - - WSW 7 13 4 7 - - -
21/11:30am - - - - - WNW 9 17 5 9 - - -
21/11:00am - - - - - NNW 11 17 6 9 - - -
21/10:30am - - - - - N 15 22 8 12 - - -
21/10:00am - - - - - N 22 30 12 16 - - -
21/09:30am - - - - - N 15 19 8 10 - - -
21/09:00am - - - - - NNE 6 9 3 5 - - -
21/08:30am - - - - - WNW 4 6 2 3 - - -
21/08:00am - - - - - W 11 13 6 7 - - -
21/07:30am - - - - - W 15 17 8 9 - - -
21/07:00am - - - - - NW 6 9 3 5 - - -
21/06:30am - - - - - NE 2 4 1 2 - - -
21/06:00am - - - - - SW 2 4 1 2 - - -
21/05:30am - - - - - WNW 7 11 4 6 - - -
21/05:00am - - - - - W 13 17 7 9 - - -
21/04:30am - - - - - WNW 11 15 6 8 - - -
21/04:00am - - - - - WNW 15 19 8 10 - - -
21/03:30am - - - - - N 9 11 5 6 - - -
21/03:00am - - - - - NNE 6 7 3 4 - - -
21/02:30am - - - - - E 2 6 1 3 - - -
21/02:00am - - - - - NNW 9 11 5 6 - - -
21/01:30am - - - - - NNW 13 15 7 8 - - -
21/01:00am - - - - - NNW 13 15 7 8 - - -
21/12:30am - - - - - NNW 13 17 7 9 - - -
21/12:00am - - - - - NNW 7 11 4 6 - - -
 
Date/Time
EST
Temp
°C
App
Temp
°C
Dew
Point
°C
Rel
Hum
%
Delta-T
°C
Wind Press
QNH
hPa
Press
MSL
hPa
Rain since
9am
mm
Dir  Spd
km/h
Gust
km/h
Spd
kts
Gust
kts
20/11:30pm - - - - - NNW 4 7 2 4 - - -
20/11:00pm - - - - - NNW 4 6 2 3 - - -
20/10:30pm - - - - - NNW 9 15 5 8 - - -
20/10:00pm - - - - - N 13 19 7 10 - - -
20/09:30pm - - - - - N 17 26 9 14 - - -
20/09:00pm - - - - - N 19 24 10 13 - - -
20/08:30pm - - - - - N 17 24 9 13 - - -
20/08:00pm - - - - - NNE 17 22 9 12 - - -
20/07:30pm - - - - - NNE 17 26 9 14 - - -
20/07:00pm - - - - - NNE 17 20 9 11 - - -
20/06:30pm - - - - - NNE 19 26 10 14 - - -
20/06:00pm - - - - - NNE 13 20 7 11 - - -
20/05:30pm - - - - - NE 7 13 4 7 - - -
20/05:00pm - - - - - NE 9 13 5 7 - - -
20/04:30pm - - - - - NE 13 22 7 12 - - -
20/04:00pm - - - - - NE 13 20 7 11 - - -
20/03:30pm - - - - - ENE 17 22 9 12 - - -
20/03:00pm - - - - - ENE 17 22 9 12 - - -
20/02:30pm - - - - - ENE 15 22 8 12 - - -
20/02:00pm - - - - - ENE 15 20 8 11 - - -
20/01:30pm - - - - - ENE 15 22 8 12 - - -
20/01:00pm - - - - - NNE 13 28 7 15 - - -
20/12:30pm - - - - - N 17 24 9 13 - - -
20/12:00pm - - - - - ESE 6 7 3 4 - - -
20/11:30am - - - - - WNW 7 11 4 6 - - -
20/11:00am - - - - - W 11 13 6 7 - - -
20/10:30am - - - - - W 11 13 6 7 - - -
20/10:00am - - - - - WNW 11 15 6 8 - - -
20/09:30am - - - - - W 17 20 9 11 - - -
20/09:00am - - - - - W 15 19 8 10 - - -
20/08:30am - - - - - WNW 15 19 8 10 - - -
20/08:00am - - - - - WNW 17 20 9 11 - - -
20/07:30am - - - - - W 15 17 8 9 - - -
20/07:00am - - - - - W 11 15 6 8 - - -
20/06:30am - - - - - W 11 13 6 7 - - -
20/06:00am - - - - - W 11 13 6 7 - - -
20/05:30am - - - - - W 15 17 8 9 - - -
20/05:00am - - - - - W 19 22 10 12 - - -
20/04:30am - - - - - W 17 20 9 11 - - -
20/04:00am - - - - - W 15 19 8 10 - - -
20/03:30am - - - - - W 13 15 7 8 - - -
20/03:00am - - - - - WNW 15 19 8 10 - - -
20/02:30am - - - - - W 13 17 7 9 - - -
20/02:00am - - - - - W 15 17 8 9 - - -
20/01:30am - - - - - WNW 15 17 8 9 - - -
20/01:00am - - - - - W 13 15 7 8 - - -
20/12:30am - - - - - WNW 13 17 7 9 - - -
20/12:00am - - - - - WNW 15 15 8 8 - - -
 
Date/Time
EST
Temp
°C
App
Temp
°C
Dew
Point
°C
Rel
Hum
%
Delta-T
°C
Wind Press
QNH
hPa
Press
MSL
hPa
Rain since
9am
mm
Dir  Spd
km/h
Gust
km/h
Spd
kts
Gust
kts
19/11:30pm - - - - - WNW 13 15 7 8 - - -
19/11:00pm - - - - - WNW 9 11 5 6 - - -
19/10:30pm - - - - - WNW 11 13 6 7 - - -
19/10:00pm - - - - - NW 6 11 3 6 - - -
19/09:30pm - - - - - WNW 9 13 5 7 - - -
19/09:00pm - - - - - WNW 15 19 8 10 - - -
19/08:30pm - - - - - WNW 19 19 10 10 - - -
19/08:00pm - - - - - W 6 9 3 5 - - -
19/07:30pm - - - - - N 4 4 2 2 - - -
19/07:00pm - - - - - CALM 0 0 0 0 - - -
19/06:30pm - - - - - CALM 0 0 0 0 - - -
19/06:00pm - - - - - N 4 6 2 3 - - -
19/05:30pm - - - - - NNE 4 6 2 3 - - -
19/05:00pm - - - - - ENE 6 7 3 4 - - -
19/04:30pm - - - - - ESE 9 11 5 6 - - -
19/04:00pm - - - - - E 11 11 6 6 - - -
19/03:30pm - - - - - ESE 11 13 6 7 - - -
19/03:00pm - - - - - ESE 13 15 7 8 - - -
19/02:30pm - - - - - E 15 19 8 10 - - -
19/02:00pm - - - - - S 6 15 3 8 - - -
19/01:30pm - - - - - SW 7 19 4 10 - - -
19/01:00pm - - - - - WSW 13 20 7 11 - - -
19/12:30pm - - - - - W 20 26 11 14 - - -
19/12:00pm - - - - - W 24 35 13 19 - - -
19/11:30am - - - - - W 22 28 12 15 - - -
19/11:00am - - - - - W 28 33 15 18 - - -
19/10:30am - - - - - W 28 35 15 19 - - -
19/10:00am - - - - - W 26 35 14 19 - - -
19/09:30am - - - - - W 26 32 14 17 - - -
19/09:00am - - - - - W 24 32 13 17 - - -
19/08:30am - - - - - W 22 28 12 15 - - -
19/08:00am - - - - - W 24 28 13 15 - - -
19/07:30am - - - - - WNW 17 20 9 11 - - -
19/07:00am - - - - - WNW 13 17 7 9 - - -
19/06:30am - - - - - WNW 13 19 7 10 - - -
19/06:00am - - - - - NW 9 15 5 8 - - -
19/05:30am - - - - - NW 9 15 5 8 - - -
19/05:00am - - - - - WNW 11 15 6 8 - - -
19/04:30am - - - - - WNW 19 22 10 12 - - -
19/04:00am - - - - - W 24 28 13 15 - - -
19/03:30am - - - - - W 15 19 8 10 - - -
19/03:00am - - - - - WNW 13 17 7 9 - - -
19/02:30am - - - - - W 19 24 10 13 - - -
19/02:00am - - - - - W 20 26 11 14 - - -
19/01:30am - - - - - W 13 17 7 9 - - -
19/01:00am - - - - - WNW 13 15 7 8 - - -
19/12:30am - - - - - WNW 17 19 9 10 - - -
19/12:00am - - - - - WNW 17 19 9 10 - - -
 
Date/Time
EST
Temp
°C
App
Temp
°C
Dew
Point
°C
Rel
Hum
%
Delta-T
°C
Wind Press
QNH
hPa
Press
MSL
hPa
Rain since
9am
mm
Dir  Spd
km/h
Gust
km/h
Spd
kts
Gust
kts
18/11:30pm - - - - - W 15 19 8 10 - - -

Other formats

Comma delimited format used in spreadsheet applications
http://www.bom.gov.au/fwo/IDN60801/IDN60801.94769.axf

JavaScript Object Notation format (JSON) in row-major order
http://www.bom.gov.au/fwo/IDN60801/IDN60801.94769.json

Data quality

Most of these data are generated automatically and are frequently updated. Quality checks on data are not normally performed. It is possible for incorrect values to appear. Refer to information at About Latest Weather Observations and please check the disclaimer before using these data.